CheckWX is a tool to help pilots better visualize weather data.  It is not intended as a substitute for an official pre-flight weather briefing.

14:51:58 UTC

HADR TAF
Aba Tenna Dejazmach Yilma International Airport
Dire Dawa, Ethiopia
TAF HADR 230930Z 2312/2418 16008KT 9999 FEW020 SCT080 BECMG 2316/2319 SCT025

Mar-23@
12:00 UTC

Mar-23 @ 12:00 UTC

Mar-23@
16:00 UTC

Mar-23 @ 16:00 UTC

TAF HADR 230930Z 2312/2418 16008KT 9999 FEW020 SCT080
Wind
  • 160° at 8 KTS
Cloud Levels
  • Few at 2,000' AGL
  • Scattered at 8,000' AGL

Mar-23@
16:00 UTC

Mar-23 @ 16:00 UTC

Mar-24@
18:00 UTC

Mar-24 @ 18:00 UTC

BECMG 2316/2319 SCT025

Becoming

Becoming Conditions expected by Sat, Mar 23, 2019 @ 19:00 UTC

Wind
  • 160° at 8 KTS
Cloud Levels
  • Scattered at 2,500' AGL